Pagrindinis puslapis
METAR-TAF:

METAR-TAF

Oro uostai :

Brunėjus, Brunėjus

platuma: 04-56N, ilguma: 114-56E, Aukštis: 22 m

Dabartinis oras

Ataskaita buvo paskelbta 30 minutes, ne 22:30 UTC
Vėjas 2 kt iš Pietvakarių
Temperatūra 26°C
Drėgmė 89%
Slėgis 1012 hPa
Matomumas 10 km arba daugiau
Mažai debesys ne aukštis 1400 ft
Išsisklaidę debesys ne aukštis 14000 ft
Su prošvaistėmis ne aukštis 30000 ft

METAR: WBSB 302230Z 23002KT 9999 FEW014 SCT140 BKN300 26/24 Q1012 NOSIG

Laikas: 07:00 (23:00 UTC)

Prognozė

Ataskaita buvo paskelbta 6 valandos ir 0 minutes, ne 17:00 UTC
Prognozė galioja nuo 30 metu 18 UTC su 01 metu 00 UTC
Vėjas 3 kt iš Pietų/Pietvakarių
Matomumas 10 km arba daugiau
Išsisklaidę debesys ne aukštis 1400 ft
Mažai debesys ne aukštis 1500 ft, Liūtiniai kamuoliniai debesys.
Tapsmas
nuo 31 metu 04 UTC su 31 metu 06 UTC
Vėjas 8 kt iš Šiaurės/Šiaurės Vakarų
Mažai debesys ne aukštis 1600 ft
Mažai debesys ne aukštis 1700 ft, Liūtiniai kamuoliniai debesys.

TAF: WBSB 301700Z 3018/0100 20003KT 9999 SCT014 FEW015CB BECMG 3104/3106 33008KT FEW016 FEW017CB

Orai ataskaitas ir orų prognozės (METAR, TAF).

turimą stotys yra geltonos ir raudonos taškus žemėlapyje.

Perkelti pele per norėdami pamatyti stoties vardą.

Tada spustelėkite, norėdami matyti oro stebėjimo ir prognozės.

Norėdami pakeisti žemėlapį: spustelėkite ant žalios mygtukų su juodo kryžiaus žemyn,; žalią mygtuką su brūkšneliu, jei norite nutolinti; arba žalių rodyklių gretimoms žemėlapius.


METAR-TAF: